TimePDT,TemperatureF,Dew PointF,Humidity,Sea Level PressureIn,VisibilityMPH,Wind Direction,Wind SpeedMPH,Gust SpeedMPH,PrecipitationIn,Events,Conditions,WindDirDegrees,DateUTC
12:54 AM,63.0,60.1,90,-9999,-9999.0,Calm,Calm,-,N/A,,Clear,0,2013-09-13 07:54:00
1:54 AM,61.0,57.0,87,-9999,-9999.0,ESE,3.5,-,N/A,,Clear,120,2013-09-13 08:54:00
2:54 AM,62.1,57.9,86,-9999,-9999.0,Calm,Calm,-,N/A,,Clear,0,2013-09-13 09:54:00
3:51 AM,60.8,57.2,88,-9999,-9999.0,Calm,Calm,-,N/A,,Scattered Clouds,0,2013-09-13 10:51:00
3:54 AM,60.1,57.9,93,-9999,-9999.0,Calm,Calm,-,N/A,,Scattered Clouds,0,2013-09-13 10:54:00
4:54 AM,61.0,57.9,90,-9999,-9999.0,Calm,Calm,-,N/A,,Clear,0,2013-09-13 11:54:00
5:54 AM,60.1,57.0,90,-9999,-9999.0,Calm,Calm,-,N/A,,Clear,0,2013-09-13 12:54:00
6:55 AM,60.8,57.2,88,29.80,7.0,Calm,Calm,-,N/A,,Clear,0,2013-09-13 13:55:00
7:54 AM,64.0,59.0,84,29.81,7.0,Calm,Calm,-,N/A,,Clear,0,2013-09-13 14:54:00
8:54 AM,69.1,61.0,75,29.81,7.0,Variable,4.6,-,N/A,,Clear,0,2013-09-13 15:54:00
9:54 AM,71.1,61.0,70,29.81,7.0,WSW,8.1,-,N/A,,Clear,240,2013-09-13 16:54:00
10:54 AM,73.0,61.0,66,29.81,7.0,West,9.2,-,N/A,,Clear,270,2013-09-13 17:54:00
11:54 AM,75.0,61.0,62,29.79,7.0,West,9.2,-,N/A,,Clear,260,2013-09-13 18:54:00
12:54 PM,73.9,62.1,66,29.77,7.0,WSW,12.7,-,N/A,,Clear,250,2013-09-13 19:54:00
1:54 PM,75.0,61.0,62,29.75,7.0,WSW,11.5,-,N/A,,Partly Cloudy,250,2013-09-13 20:54:00
2:54 PM,75.0,57.9,55,29.73,7.0,West,12.7,-,N/A,,Partly Cloudy,270,2013-09-13 21:54:00
3:54 PM,75.0,57.9,55,29.70,7.0,West,10.4,-,N/A,,Partly Cloudy,260,2013-09-13 22:54:00
4:54 PM,73.0,61.0,66,29.69,7.0,West,9.2,-,N/A,,Clear,260,2013-09-13 23:54:00
5:54 PM,70.0,61.0,73,29.69,7.0,West,6.9,-,N/A,,Clear,270,2013-09-14 00:54:00
6:54 PM,68.0,60.1,76,29.68,7.0,WNW,4.6,-,N/A,,Clear,300,2013-09-14 01:54:00
7:54 PM,66.0,60.1,81,29.68,7.0,WNW,4.6,-,N/A,,Clear,300,2013-09-14 02:54:00
8:54 PM,64.9,60.1,84,29.68,7.0,WNW,5.8,-,N/A,,Clear,290,2013-09-14 03:54:00
9:54 PM,64.0,60.1,87,29.69,7.0,West,3.5,-,N/A,,Clear,280,2013-09-14 04:54:00
10:54 PM,63.0,60.1,90,29.69,7.0,Calm,Calm,-,N/A,,Clear,0,2013-09-14 05:54:00
11:54 PM,63.0,59.0,87,29.69,7.0,Calm,Calm,-,N/A,,Clear,0,2013-09-14 06:54:00